createdAt,value
2022-12-11T00:01:45.736Z,-9.93
2022-12-11T00:04:18.165Z,-10.08
2022-12-11T00:06:53.586Z,-9.89
2022-12-11T00:09:24.977Z,-9.95
2022-12-11T00:11:54.004Z,-9.81
2022-12-11T00:14:23.022Z,-9.67
2022-12-11T00:16:52.030Z,-9.67
2022-12-11T00:19:28.723Z,-9.49
2022-12-11T00:22:07.424Z,-9.50
2022-12-11T00:24:36.643Z,-9.61
2022-12-11T00:27:05.422Z,-9.74
2022-12-11T00:29:36.124Z,-9.60
2022-12-11T00:32:07.301Z,-9.67
2022-12-11T00:34:37.578Z,-9.76
2022-12-11T00:37:06.800Z,-9.88
2022-12-11T00:39:37.704Z,-9.82
2022-12-11T00:42:11.165Z,-9.64
2022-12-11T00:44:42.145Z,-9.65
2022-12-11T00:50:47.621Z,-9.47
2022-12-11T00:53:16.544Z,-9.27
2022-12-11T00:55:48.465Z,-9.45
2022-12-11T00:58:20.810Z,-9.69
2022-12-11T01:01:18.543Z,-9.56
2022-12-11T01:04:08.981Z,-9.67
2022-12-11T01:07:03.863Z,-9.44
2022-12-11T01:09:57.462Z,-9.40
2022-12-11T01:12:46.355Z,-9.33
2022-12-11T01:15:42.191Z,-9.44
2022-12-11T01:18:13.888Z,-9.35
2022-12-11T01:20:44.118Z,-9.26
2022-12-11T01:23:19.302Z,-9.28
2022-12-11T01:25:56.754Z,-9.40
2022-12-11T01:28:25.484Z,-9.19
2022-12-11T01:31:23.403Z,-9.23
2022-12-11T01:34:05.163Z,-9.06
2022-12-11T01:36:41.863Z,-9.07
2022-12-11T01:39:31.298Z,-9.05
2022-12-11T01:42:00.865Z,-9.25
2022-12-11T01:45:06.724Z,-9.34
2022-12-11T01:47:42.643Z,-9.38
2022-12-11T01:50:11.925Z,-9.15
2022-12-11T01:52:47.385Z,-9.00
2022-12-11T01:55:26.162Z,-9.11
2022-12-11T01:58:04.634Z,-9.06
2022-12-11T02:00:34.841Z,-8.98
2022-12-11T02:06:37.977Z,-9.01
2022-12-11T02:09:09.439Z,-9.02
2022-12-11T02:11:58.665Z,-9.10
2022-12-11T02:15:00.326Z,-9.16
2022-12-11T02:17:57.696Z,-9.14
2022-12-11T02:21:00.682Z,-9.05
2022-12-11T02:24:27.963Z,-9.18
2022-12-11T02:27:19.988Z,-9.24
2022-12-11T02:30:07.523Z,-9.23
2022-12-11T02:33:19.422Z,-9.17
2022-12-11T02:39:27.548Z,-9.10
2022-12-11T02:41:57.891Z,-9.03
2022-12-11T02:44:29.726Z,-9.07
2022-12-11T02:47:01.126Z,-9.10
2022-12-11T02:49:30.639Z,-9.11
2022-12-11T02:52:02.411Z,-9.13
2022-12-11T02:55:01.246Z,-9.21
2022-12-11T02:57:35.480Z,-9.13
2022-12-11T03:00:12.846Z,-9.04
2022-12-11T03:02:59.199Z,-9.03
2022-12-11T03:05:28.841Z,-8.99
2022-12-11T03:07:57.721Z,-8.96
2022-12-11T03:10:26.754Z,-9.22
2022-12-11T03:13:21.938Z,-8.99
2022-12-11T03:16:21.586Z,-9.17
2022-12-11T03:19:07.465Z,-8.97
2022-12-11T03:21:55.735Z,-8.89
2022-12-11T03:24:57.316Z,-9.08
2022-12-11T03:27:31.857Z,-9.12
2022-12-11T03:30:28.805Z,-8.98
2022-12-11T03:33:01.863Z,-9.04
2022-12-11T03:35:40.448Z,-8.87
2022-12-11T03:38:23.660Z,-8.91
2022-12-11T03:41:17.334Z,-9.00
2022-12-11T03:44:15.138Z,-9.00
2022-12-11T03:47:18.942Z,-9.06
2022-12-11T03:49:49.496Z,-9.10
2022-12-11T03:52:21.614Z,-8.98
2022-12-11T03:55:13.674Z,-8.80
2022-12-11T03:57:42.813Z,-8.75
2022-12-11T04:00:37.212Z,-8.78
2022-12-11T04:03:18.352Z,-8.91
2022-12-11T04:05:51.197Z,-8.87
2022-12-11T04:09:04.480Z,-8.93
2022-12-11T04:15:05.957Z,-8.91
2022-12-11T04:18:19.965Z,-8.83
2022-12-11T04:21:24.079Z,-8.93
2022-12-11T04:24:32.159Z,-8.94
2022-12-11T04:30:13.176Z,-8.81
2022-12-11T04:32:42.465Z,-8.77
2022-12-11T04:35:12.528Z,-8.74
2022-12-11T04:43:14.290Z,-8.84
2022-12-11T04:45:48.761Z,-8.85
2022-12-11T04:48:17.451Z,-8.82
2022-12-11T04:50:48.673Z,-8.70
2022-12-11T04:53:17.332Z,-8.81
2022-12-11T04:59:18.851Z,-8.66
2022-12-11T05:01:50.950Z,-8.56
2022-12-11T05:04:19.869Z,-8.60
2022-12-11T05:07:03.588Z,-8.50
2022-12-11T05:09:32.379Z,-8.76
2022-12-11T05:12:10.615Z,-8.68
2022-12-11T05:14:40.878Z,-8.89
2022-12-11T05:17:09.701Z,-8.81
2022-12-11T05:19:42.748Z,-8.79
2022-12-11T05:22:25.340Z,-8.79
2022-12-11T05:24:58.557Z,-8.72
2022-12-11T05:27:33.041Z,-8.73
2022-12-11T05:30:03.428Z,-8.72
2022-12-11T05:32:32.244Z,-8.77
2022-12-11T05:35:00.942Z,-8.77
2022-12-11T05:37:29.901Z,-8.76
2022-12-11T05:39:59.102Z,-8.71
2022-12-11T05:45:33.439Z,-8.74
2022-12-11T05:48:04.625Z,-8.42
2022-12-11T05:50:33.320Z,-8.48
2022-12-11T05:53:01.950Z,-8.55
2022-12-11T05:55:31.649Z,-8.51
2022-12-11T05:58:00.339Z,-8.55
2022-12-11T06:00:35.837Z,-8.67
2022-12-11T06:03:05.163Z,-8.81
2022-12-11T06:08:18.221Z,-8.82
2022-12-11T06:10:48.244Z,-8.83
2022-12-11T06:13:17.960Z,-8.76
2022-12-11T06:15:52.260Z,-8.80
2022-12-11T06:18:37.568Z,-8.73
2022-12-11T06:21:33.563Z,-8.76
2022-12-11T06:24:18.972Z,-8.79
2022-12-11T06:26:50.921Z,-8.85
2022-12-11T06:29:51.421Z,-8.75
2022-12-11T06:32:22.073Z,-8.62
2022-12-11T06:34:50.811Z,-8.42
2022-12-11T06:37:19.512Z,-8.50
2022-12-11T06:39:48.447Z,-8.59
2022-12-11T06:42:21.369Z,-8.57
2022-12-11T06:44:52.200Z,-8.61
2022-12-11T06:47:36.021Z,-8.55
2022-12-11T06:50:05.342Z,-8.56
2022-12-11T06:52:35.352Z,-8.66
2022-12-11T06:55:11.394Z,-8.63
2022-12-11T06:58:18.180Z,-8.62
2022-12-11T07:00:50.204Z,-8.51
2022-12-11T07:03:26.774Z,-8.47
2022-12-11T07:06:10.880Z,-8.33
2022-12-11T07:08:43.879Z,-8.51
2022-12-11T07:11:14.527Z,-8.52
2022-12-11T07:13:43.922Z,-8.36
2022-12-11T07:19:22.060Z,-8.46
2022-12-11T07:21:53.116Z,-8.40
2022-12-11T07:27:45.044Z,-8.27
2022-12-11T07:30:52.782Z,-8.16
2022-12-11T07:37:08.802Z,-8.24
2022-12-11T07:40:01.372Z,-8.13
2022-12-11T07:43:12.844Z,-8.14
2022-12-11T07:45:41.658Z,-8.07
2022-12-11T07:48:10.241Z,-8.30
2022-12-11T07:54:19.642Z,-8.07
2022-12-11T08:00:05.001Z,-7.86
2022-12-11T08:02:55.924Z,-7.88
2022-12-11T08:05:25.165Z,-7.90
2022-12-11T08:07:58.389Z,-7.84
2022-12-11T08:10:57.426Z,-7.91
2022-12-11T08:13:26.117Z,-7.82
2022-12-11T08:16:33.359Z,-8.04
2022-12-11T08:19:02.731Z,-8.12
2022-12-11T08:21:31.479Z,-7.96
2022-12-11T08:24:00.090Z,-7.84
2022-12-11T08:27:31.393Z,-7.89
2022-12-11T08:30:01.841Z,-8.00
2022-12-11T08:32:33.304Z,-8.04
2022-12-11T08:35:10.494Z,-8.09
2022-12-11T08:41:34.235Z,-7.93
2022-12-11T08:52:14.108Z,-7.91
2022-12-11T09:04:59.862Z,-7.76
2022-12-11T09:08:16.126Z,-7.63
2022-12-11T09:11:07.465Z,-7.66
2022-12-11T09:19:48.925Z,-7.47
2022-12-11T09:26:03.870Z,-7.44
2022-12-11T09:28:51.842Z,-7.45
2022-12-11T09:35:54.102Z,-7.47
2022-12-11T09:38:29.443Z,-7.46
2022-12-11T09:41:33.443Z,-7.50
2022-12-11T09:44:20.425Z,-7.36
2022-12-11T09:46:56.411Z,-7.37
2022-12-11T09:49:45.381Z,-7.36
2022-12-11T09:52:25.506Z,-7.39
2022-12-11T09:55:10.692Z,-7.44
2022-12-11T09:58:12.262Z,-7.45
2022-12-11T10:05:09.621Z,-7.41
2022-12-11T10:16:07.088Z,-7.38
2022-12-11T10:23:18.328Z,-7.31
2022-12-11T10:26:14.607Z,-7.34
2022-12-11T10:29:07.944Z,-7.23
2022-12-11T10:36:21.145Z,-7.20
2022-12-11T10:39:47.063Z,-7.24
2022-12-11T10:46:21.970Z,-7.24
2022-12-11T10:49:10.865Z,-7.18
2022-12-11T10:52:14.305Z,-7.13
2022-12-11T10:55:48.984Z,-7.15
2022-12-11T10:59:24.322Z,-7.23
2022-12-11T11:02:11.085Z,-7.06
2022-12-11T11:04:49.882Z,-7.06
2022-12-11T11:07:22.765Z,-7.09
2022-12-11T11:10:16.483Z,-7.02
2022-12-11T11:13:06.606Z,-7.01
2022-12-11T11:15:45.733Z,-6.90
2022-12-11T11:18:46.786Z,-6.98
2022-12-11T11:21:22.982Z,-7.01
2022-12-11T11:23:59.142Z,-6.93
2022-12-11T11:27:18.813Z,-6.84
2022-12-11T11:29:53.227Z,-6.90
2022-12-11T11:36:04.202Z,-6.86
2022-12-11T11:38:37.722Z,-6.82
2022-12-11T11:41:21.544Z,-6.74
2022-12-11T11:44:08.686Z,-6.84
2022-12-11T11:47:31.046Z,-6.93
2022-12-11T11:53:15.444Z,-6.92
2022-12-11T11:59:27.641Z,-6.82
2022-12-11T12:02:01.825Z,-6.93
2022-12-11T12:04:35.286Z,-6.94
2022-12-11T12:07:34.744Z,-6.97
2022-12-11T12:10:29.243Z,-6.94
2022-12-11T12:16:43.790Z,-6.84
2022-12-11T12:19:07.642Z,-6.81
2022-12-11T12:24:59.042Z,-6.84
2022-12-11T12:27:54.516Z,-6.95
2022-12-11T12:30:46.317Z,-7.03
2022-12-11T12:33:50.339Z,-7.05
2022-12-11T12:36:28.432Z,-7.09
2022-12-11T12:39:48.619Z,-7.10
2022-12-11T12:42:28.982Z,-7.10
2022-12-11T12:45:02.977Z,-7.13
2022-12-11T12:47:37.739Z,-7.16
2022-12-11T12:50:15.672Z,-7.19
2022-12-11T12:52:50.641Z,-7.10
2022-12-11T12:55:25.060Z,-7.15
2022-12-11T12:57:57.848Z,-7.26
2022-12-11T13:00:32.202Z,-7.23
2022-12-11T13:03:14.917Z,-7.21
2022-12-11T13:05:46.240Z,-7.19
2022-12-11T13:08:26.117Z,-7.25
2022-12-11T13:11:03.852Z,-7.26
2022-12-11T13:13:38.482Z,-7.31
2022-12-11T13:16:42.209Z,-7.36
2022-12-11T13:19:42.752Z,-7.35
2022-12-11T13:22:27.067Z,-7.40
2022-12-11T13:25:27.466Z,-7.41
2022-12-11T13:28:23.717Z,-7.40
2022-12-11T13:31:07.672Z,-7.43
2022-12-11T13:34:01.419Z,-7.45
2022-12-11T13:36:35.481Z,-7.53
2022-12-11T13:39:42.580Z,-7.47
2022-12-11T13:45:34.520Z,-7.61
2022-12-11T13:48:03.382Z,-7.60
2022-12-11T13:50:42.361Z,-7.58
2022-12-11T13:53:23.001Z,-7.62
2022-12-11T13:56:39.597Z,-7.62
2022-12-11T13:59:28.361Z,-7.71
2022-12-11T14:02:08.869Z,-7.68
2022-12-11T14:04:39.961Z,-7.76
2022-12-11T14:07:16.039Z,-7.86
2022-12-11T14:10:01.567Z,-7.90
2022-12-11T14:13:13.138Z,-7.82
2022-12-11T14:15:47.111Z,-7.83
2022-12-11T14:18:31.764Z,-7.90
2022-12-11T14:21:02.504Z,-7.93
2022-12-11T14:23:33.082Z,-7.89
2022-12-11T14:26:34.671Z,-7.94
2022-12-11T14:32:42.554Z,-7.90
2022-12-11T14:35:38.936Z,-7.94
2022-12-11T14:38:38.472Z,-8.00
2022-12-11T14:41:40.172Z,-7.81
2022-12-11T14:44:46.396Z,-7.95
2022-12-11T14:47:37.913Z,-7.86
2022-12-11T14:50:51.153Z,-7.98
2022-12-11T14:53:37.277Z,-8.00
2022-12-11T14:56:24.200Z,-8.04
2022-12-11T14:59:03.030Z,-8.02
2022-12-11T15:01:38.077Z,-8.05
2022-12-11T15:04:09.403Z,-8.00
2022-12-11T15:07:12.056Z,-8.03
2022-12-11T15:09:45.015Z,-7.93
2022-12-11T15:12:36.638Z,-8.00
2022-12-11T15:15:39.892Z,-7.94
2022-12-11T15:18:34.029Z,-8.00
2022-12-11T15:21:28.530Z,-8.00
2022-12-11T15:24:02.316Z,-7.96
2022-12-11T15:26:46.700Z,-7.99
2022-12-11T15:30:13.941Z,-8.01
2022-12-11T15:32:43.638Z,-8.05
2022-12-11T15:35:52.616Z,-8.08
2022-12-11T15:38:42.317Z,-8.04
2022-12-11T15:41:36.777Z,-8.02
2022-12-11T15:44:06.438Z,-8.07
2022-12-11T15:46:47.960Z,-8.08
2022-12-11T15:49:18.259Z,-8.06
2022-12-11T15:52:03.618Z,-8.14
2022-12-11T15:54:47.799Z,-8.06
2022-12-11T15:57:19.090Z,-8.06
2022-12-11T16:00:00.028Z,-8.08
2022-12-11T16:02:42.601Z,-8.08
2022-12-11T16:05:12.524Z,-8.09
2022-12-11T16:07:42.922Z,-8.08
2022-12-11T16:10:25.358Z,-8.03
2022-12-11T16:16:05.913Z,-7.97
2022-12-11T16:18:48.255Z,-7.99
2022-12-11T16:21:34.938Z,-8.01
2022-12-11T16:27:12.100Z,-8.06
2022-12-11T16:29:42.530Z,-8.04
2022-12-11T16:32:12.102Z,-8.05
2022-12-11T16:34:45.162Z,-8.02
2022-12-11T16:37:21.125Z,-8.02
2022-12-11T16:39:49.853Z,-7.97
2022-12-11T16:42:27.497Z,-7.96
2022-12-11T16:44:56.179Z,-8.01
2022-12-11T16:47:24.882Z,-7.98
2022-12-11T16:49:54.093Z,-7.99
2022-12-11T16:52:30.887Z,-8.03
2022-12-11T16:59:37.379Z,-8.02
2022-12-11T17:02:11.620Z,-8.02
2022-12-11T17:04:43.076Z,-7.94
2022-12-11T17:07:31.742Z,-7.98
2022-12-11T17:10:17.136Z,-7.86
2022-12-11T17:12:49.075Z,-7.91
2022-12-11T17:15:18.143Z,-7.90
2022-12-11T17:18:00.855Z,-7.90
2022-12-11T17:20:50.965Z,-7.91
2022-12-11T17:23:39.943Z,-7.90
2022-12-11T17:28:59.015Z,-7.89
2022-12-11T17:31:31.186Z,-7.87
2022-12-11T17:34:02.178Z,-7.86
2022-12-11T17:36:43.134Z,-7.86
2022-12-11T17:39:21.468Z,-7.82
2022-12-11T17:41:50.265Z,-7.86
2022-12-11T17:44:31.561Z,-7.83
2022-12-11T17:49:43.746Z,-7.83
2022-12-11T17:52:12.551Z,-7.79
2022-12-11T17:54:59.107Z,-7.82
2022-12-11T17:57:42.901Z,-7.78
2022-12-11T18:00:22.762Z,-7.74
2022-12-11T18:02:52.307Z,-7.71
2022-12-11T18:05:23.163Z,-7.60
2022-12-11T18:08:06.016Z,-7.71
2022-12-11T18:10:37.723Z,-7.72
2022-12-11T18:13:25.521Z,-7.68
2022-12-11T18:16:05.449Z,-7.69
2022-12-11T18:18:34.506Z,-7.72
2022-12-11T18:21:14.159Z,-7.72
2022-12-11T18:23:53.048Z,-7.68
2022-12-11T18:26:24.973Z,-7.67
2022-12-11T18:28:54.766Z,-7.67
2022-12-11T18:31:42.925Z,-7.65
2022-12-11T18:34:24.126Z,-7.60
2022-12-11T18:37:22.252Z,-7.63
2022-12-11T18:40:19.696Z,-7.58
2022-12-11T18:43:03.535Z,-7.60
2022-12-11T18:45:33.534Z,-7.66
2022-12-11T18:48:14.506Z,-7.62
2022-12-11T18:50:56.812Z,-7.60
2022-12-11T18:54:01.717Z,-7.55
2022-12-11T18:56:52.630Z,-7.59
2022-12-11T18:59:23.189Z,-7.57
2022-12-11T19:04:56.811Z,-7.51
2022-12-11T19:07:33.825Z,-7.58
2022-12-11T19:10:35.097Z,-7.49
2022-12-11T19:13:04.083Z,-7.47
2022-12-11T19:15:36.583Z,-7.48
2022-12-11T19:18:08.680Z,-7.49
2022-12-11T19:20:59.315Z,-7.46
2022-12-11T19:23:36.780Z,-7.47
2022-12-11T19:26:25.926Z,-7.48
2022-12-11T19:28:57.181Z,-7.42
2022-12-11T19:31:49.334Z,-7.41
2022-12-11T19:37:34.625Z,-7.40
2022-12-11T19:40:16.993Z,-7.40
2022-12-11T19:46:09.735Z,-7.35
2022-12-11T19:48:54.200Z,-7.39
2022-12-11T19:51:48.601Z,-7.34
2022-12-11T19:54:42.921Z,-7.36
2022-12-11T20:00:34.144Z,-7.33
2022-12-11T20:06:17.486Z,-7.30
2022-12-11T20:08:49.238Z,-7.25
2022-12-11T20:11:19.282Z,-7.24
2022-12-11T20:22:39.148Z,-7.16
2022-12-11T20:27:56.741Z,-7.26
2022-12-11T20:30:46.048Z,-7.27
2022-12-11T20:36:36.666Z,-7.16
2022-12-11T20:39:10.421Z,-7.13
2022-12-11T20:41:39.513Z,-7.08
2022-12-11T20:44:11.963Z,-7.19
2022-12-11T20:46:41.147Z,-7.09
2022-12-11T20:49:13.316Z,-7.10
2022-12-11T20:51:53.219Z,-7.10
2022-12-11T20:54:23.597Z,-7.09
2022-12-11T20:56:54.440Z,-7.09
2022-12-11T20:59:23.299Z,-7.08
2022-12-11T21:02:00.721Z,-7.07
2022-12-11T21:04:41.461Z,-7.05
2022-12-11T21:07:12.236Z,-7.06
2022-12-11T21:09:46.263Z,-7.04
2022-12-11T21:12:16.478Z,-7.03
2022-12-11T21:14:50.140Z,-7.08
2022-12-11T21:17:24.099Z,-7.06
2022-12-11T21:19:55.024Z,-7.04
2022-12-11T21:22:38.456Z,-7.03
2022-12-11T21:25:11.983Z,-7.04
2022-12-11T21:27:49.742Z,-7.05
2022-12-11T21:30:29.923Z,-7.04
2022-12-11T21:32:59.124Z,-7.06
2022-12-11T21:35:32.751Z,-7.01
2022-12-11T21:38:03.804Z,-7.02
2022-12-11T21:40:37.545Z,-7.00
2022-12-11T21:46:00.971Z,-7.01
2022-12-11T21:48:30.725Z,-7.01
2022-12-11T21:51:08.741Z,-7.05
2022-12-11T21:53:38.508Z,-7.01
2022-12-11T21:56:24.324Z,-7.01
2022-12-11T21:58:56.789Z,-6.97
2022-12-11T22:01:29.257Z,-6.94
2022-12-11T22:03:58.346Z,-6.97
2022-12-11T22:06:36.510Z,-6.97
2022-12-11T22:12:07.477Z,-6.97
2022-12-11T22:14:37.425Z,-7.01
2022-12-11T22:17:06.625Z,-6.99
2022-12-11T22:19:48.804Z,-6.97
2022-12-11T22:22:17.724Z,-6.98
2022-12-11T22:24:51.225Z,-6.94
2022-12-11T22:27:23.926Z,-6.96
2022-12-11T22:29:53.023Z,-6.93
2022-12-11T22:32:22.647Z,-6.94
2022-12-11T22:34:53.802Z,-6.95
2022-12-11T22:37:27.920Z,-6.94
2022-12-11T22:40:17.001Z,-6.96
2022-12-11T22:42:47.418Z,-6.97
2022-12-11T22:45:16.524Z,-6.97
2022-12-11T22:50:33.380Z,-6.98
2022-12-11T22:53:13.999Z,-6.95
2022-12-11T22:55:49.344Z,-6.99
2022-12-11T22:58:23.567Z,-7.00
2022-12-11T23:00:56.997Z,-6.99
2022-12-11T23:03:26.048Z,-6.99
2022-12-11T23:05:55.130Z,-7.00
2022-12-11T23:08:26.484Z,-6.98
2022-12-11T23:10:55.582Z,-7.00
2022-12-11T23:13:31.029Z,-6.99
2022-12-11T23:16:01.175Z,-7.02
2022-12-11T23:18:29.947Z,-7.05
2022-12-11T23:21:05.108Z,-7.04
2022-12-11T23:23:34.233Z,-7.11
2022-12-11T23:26:03.565Z,-7.09
2022-12-11T23:28:37.881Z,-7.04
2022-12-11T23:31:08.708Z,-7.02
2022-12-11T23:33:40.898Z,-7.04
2022-12-11T23:36:10.694Z,-7.08
2022-12-11T23:38:54.928Z,-7.03
2022-12-11T23:41:24.896Z,-7.01
2022-12-11T23:47:16.499Z,-6.98
2022-12-11T23:49:45.632Z,-7.06
2022-12-11T23:52:14.368Z,-7.00
2022-12-11T23:54:43.510Z,-7.02
2022-12-11T23:57:12.948Z,-7.02
2022-12-11T23:59:45.158Z,-7.01
